createdAt,value
2018-01-11T00:01:03.836Z,3.40
2018-01-11T00:03:31.436Z,3.40
2018-01-11T00:05:59.023Z,3.40
2018-01-11T00:08:26.622Z,3.40
2018-01-11T00:10:54.218Z,3.50
2018-01-11T00:13:21.812Z,3.50
2018-01-11T00:15:49.422Z,3.50
2018-01-11T00:18:17.864Z,3.60
2018-01-11T00:20:45.473Z,3.50
2018-01-11T00:23:13.843Z,3.50
2018-01-11T00:25:41.430Z,3.50
2018-01-11T00:28:09.033Z,3.50
2018-01-11T00:30:36.626Z,3.50
2018-01-11T00:33:04.220Z,3.50
2018-01-11T00:35:32.605Z,3.50
2018-01-11T00:38:01.433Z,3.50
2018-01-11T00:40:29.023Z,3.40
2018-01-11T00:42:56.617Z,3.40
2018-01-11T00:45:24.207Z,3.40
2018-01-11T00:47:51.862Z,3.40
2018-01-11T00:50:19.452Z,3.40
2018-01-11T00:52:47.077Z,3.40
2018-01-11T00:55:14.664Z,3.40
2018-01-11T00:57:43.071Z,3.40
2018-01-11T01:00:10.667Z,3.40
2018-01-11T01:02:38.259Z,3.40
2018-01-11T01:05:06.653Z,3.40
2018-01-11T01:07:35.017Z,3.30
2018-01-11T01:10:02.606Z,3.30
2018-01-11T01:12:30.206Z,3.40
2018-01-11T01:14:57.796Z,3.40
2018-01-11T01:17:25.390Z,3.40
2018-01-11T01:19:52.981Z,3.40
2018-01-11T01:22:20.659Z,3.40
2018-01-11T01:24:48.252Z,3.40
2018-01-11T01:27:15.848Z,3.40
2018-01-11T01:29:44.202Z,3.50
2018-01-11T01:32:11.821Z,3.50
2018-01-11T01:34:39.406Z,3.40
2018-01-11T01:37:06.997Z,3.50
2018-01-11T01:39:34.593Z,3.40
2018-01-11T01:42:02.968Z,3.40
2018-01-11T01:44:30.562Z,3.40
2018-01-11T01:46:58.151Z,3.40
2018-01-11T01:49:25.743Z,3.40
2018-01-11T01:51:53.355Z,3.40
2018-01-11T01:54:20.955Z,3.40
2018-01-11T01:56:48.544Z,3.50
2018-01-11T01:59:16.139Z,3.50
2018-01-11T02:01:44.542Z,3.60
2018-01-11T02:04:12.136Z,3.60
2018-01-11T02:06:39.727Z,3.70
2018-01-11T02:09:07.326Z,3.70
2018-01-11T02:11:34.920Z,3.70
2018-01-11T02:14:02.519Z,3.60
2018-01-11T02:16:30.110Z,3.60
2018-01-11T02:18:57.700Z,3.60
2018-01-11T02:21:25.295Z,3.60
2018-01-11T02:23:52.883Z,3.60
2018-01-11T02:26:20.530Z,3.60
2018-01-11T02:28:48.126Z,3.60
2018-01-11T02:31:16.486Z,3.50
2018-01-11T02:33:44.088Z,3.50
2018-01-11T02:36:11.683Z,3.50
2018-01-11T02:38:39.267Z,3.60
2018-01-11T02:41:06.854Z,3.50
2018-01-11T02:43:34.441Z,3.60
2018-01-11T02:46:02.800Z,3.50
2018-01-11T02:48:30.401Z,3.50
2018-01-11T02:50:57.990Z,3.50
2018-01-11T02:53:25.584Z,3.50
2018-01-11T02:55:53.175Z,3.50
2018-01-11T02:58:21.560Z,3.50
2018-01-11T03:00:49.923Z,3.50
2018-01-11T03:03:17.576Z,3.50
2018-01-11T03:05:45.166Z,3.50
2018-01-11T03:08:13.528Z,3.50
2018-01-11T03:10:41.163Z,3.50
2018-01-11T03:13:08.751Z,3.50
2018-01-11T03:15:36.344Z,3.50
2018-01-11T03:18:03.932Z,3.50
2018-01-11T03:20:31.526Z,3.50
2018-01-11T03:22:59.128Z,3.50
2018-01-11T03:25:26.729Z,3.50
2018-01-11T03:27:54.319Z,3.40
2018-01-11T03:30:21.916Z,3.40
2018-01-11T03:32:49.512Z,3.40
2018-01-11T03:35:17.891Z,3.40
2018-01-11T03:37:46.246Z,3.40
2018-01-11T03:40:13.845Z,3.40
2018-01-11T03:42:41.441Z,3.40
2018-01-11T03:45:09.035Z,3.40
2018-01-11T03:47:36.630Z,3.40
2018-01-11T03:50:04.991Z,3.40
2018-01-11T03:52:32.584Z,3.40
2018-01-11T03:55:00.175Z,3.40
2018-01-11T03:57:27.767Z,3.40
2018-01-11T03:59:55.360Z,3.40
2018-01-11T04:02:22.956Z,3.40
2018-01-11T04:04:50.560Z,3.40
2018-01-11T04:07:18.156Z,3.40
2018-01-11T04:09:45.752Z,3.40
2018-01-11T04:12:13.360Z,3.40
2018-01-11T04:14:40.954Z,3.40
2018-01-11T04:17:08.546Z,3.40
2018-01-11T04:19:36.156Z,3.40
2018-01-11T04:22:03.756Z,3.40
2018-01-11T04:24:32.132Z,3.40
2018-01-11T04:26:59.726Z,3.40
2018-01-11T04:29:27.339Z,3.40
2018-01-11T04:31:54.929Z,3.40
2018-01-11T04:34:23.275Z,3.40
2018-01-11T04:36:50.908Z,3.40
2018-01-11T04:39:18.539Z,3.50
2018-01-11T04:41:46.898Z,3.50
2018-01-11T04:44:14.494Z,3.50
2018-01-11T04:46:42.850Z,3.50
2018-01-11T04:49:10.458Z,3.50
2018-01-11T04:51:38.039Z,3.60
2018-01-11T04:54:05.631Z,3.60
2018-01-11T04:56:33.224Z,3.60
2018-01-11T04:59:00.819Z,3.60
2018-01-11T05:01:28.406Z,3.60
2018-01-11T05:03:56.002Z,3.60
2018-01-11T05:06:23.591Z,3.60
2018-01-11T05:08:51.184Z,3.60
2018-01-11T05:11:18.787Z,3.60
2018-01-11T05:13:46.438Z,3.60
2018-01-11T05:16:14.035Z,3.70
2018-01-11T05:18:41.638Z,3.60
2018-01-11T05:21:09.251Z,3.60
2018-01-11T05:23:36.898Z,3.60
2018-01-11T05:26:04.493Z,3.60
2018-01-11T05:28:32.092Z,3.60
2018-01-11T05:30:59.684Z,3.60
2018-01-11T05:33:27.291Z,3.60
2018-01-11T05:35:54.882Z,3.60
2018-01-11T05:38:23.243Z,3.60
2018-01-11T05:40:50.832Z,3.60
2018-01-11T05:43:19.187Z,3.60
2018-01-11T05:45:46.774Z,3.50
2018-01-11T05:48:14.384Z,3.50
2018-01-11T05:50:41.980Z,3.50
2018-01-11T05:53:09.583Z,3.40
2018-01-11T05:55:37.178Z,3.40
2018-01-11T05:58:04.764Z,3.40
2018-01-11T06:00:32.350Z,3.40
2018-01-11T06:02:59.943Z,3.40
2018-01-11T06:05:27.538Z,3.30
2018-01-11T06:07:55.132Z,3.30
2018-01-11T06:10:22.731Z,3.30
2018-01-11T06:12:50.633Z,3.30
2018-01-11T06:15:18.222Z,3.30
2018-01-11T06:17:45.811Z,3.30
2018-01-11T06:20:13.439Z,3.30
2018-01-11T06:22:41.032Z,3.30
2018-01-11T06:25:08.621Z,3.30
2018-01-11T06:27:36.974Z,3.30
2018-01-11T06:30:04.580Z,3.30
2018-01-11T06:32:32.164Z,3.30
2018-01-11T06:34:59.754Z,3.30
2018-01-11T06:37:27.353Z,3.30
2018-01-11T06:39:54.939Z,3.30
2018-01-11T06:42:23.316Z,3.30
2018-01-11T06:44:51.713Z,3.30
2018-01-11T06:47:19.311Z,3.20
2018-01-11T06:49:46.904Z,3.30
2018-01-11T06:52:14.524Z,3.30
2018-01-11T06:54:42.116Z,3.30
2018-01-11T06:57:09.736Z,3.30
2018-01-11T06:59:37.327Z,3.30
2018-01-11T07:02:04.955Z,3.30
2018-01-11T07:04:33.334Z,3.30
2018-01-11T07:07:00.934Z,3.30
2018-01-11T07:09:28.532Z,3.30
2018-01-11T07:11:56.122Z,3.20
2018-01-11T07:14:24.483Z,3.20
2018-01-11T07:16:52.072Z,3.20
2018-01-11T07:19:20.430Z,3.10
2018-01-11T07:21:48.026Z,3.10
2018-01-11T07:24:15.627Z,3.10
2018-01-11T07:26:43.219Z,3.10
2018-01-11T07:29:10.820Z,3.10
2018-01-11T07:31:39.177Z,3.20
2018-01-11T07:34:06.783Z,3.10
2018-01-11T07:36:34.388Z,3.20
2018-01-11T07:39:02.031Z,3.30
2018-01-11T07:41:29.619Z,3.30
2018-01-11T07:43:57.218Z,3.30
2018-01-11T07:46:25.568Z,3.30
2018-01-11T07:48:53.165Z,3.40
2018-01-11T07:51:21.575Z,3.40
2018-01-11T07:53:49.199Z,3.40
2018-01-11T07:56:16.803Z,3.40
2018-01-11T07:58:44.410Z,3.50
2018-01-11T08:01:12.007Z,3.50
2018-01-11T08:03:40.448Z,3.50
2018-01-11T08:06:08.068Z,3.50
2018-01-11T08:08:35.688Z,3.50
2018-01-11T08:11:03.280Z,3.50
2018-01-11T08:13:31.643Z,3.60
2018-01-11T08:15:59.241Z,3.50
2018-01-11T08:18:27.598Z,3.70
2018-01-11T08:20:55.187Z,3.70
2018-01-11T08:23:22.772Z,3.70
2018-01-11T08:25:50.360Z,3.70
2018-01-11T08:28:17.960Z,3.80
2018-01-11T08:30:45.561Z,3.90
2018-01-11T08:33:13.160Z,3.90
2018-01-11T08:35:40.748Z,3.90
2018-01-11T08:38:08.345Z,3.90
2018-01-11T08:40:36.723Z,4.00
2018-01-11T08:43:04.306Z,3.90
2018-01-11T08:45:31.900Z,4.00
2018-01-11T08:47:59.503Z,4.00
2018-01-11T08:50:27.086Z,4.10
2018-01-11T08:52:55.443Z,4.20
2018-01-11T08:55:23.042Z,4.20
2018-01-11T08:57:50.670Z,4.30
2018-01-11T09:00:18.267Z,4.30
2018-01-11T09:02:45.879Z,4.40
2018-01-11T09:05:13.467Z,4.40
2018-01-11T09:07:41.061Z,4.40
2018-01-11T09:10:09.419Z,4.50
2018-01-11T09:12:37.012Z,4.50
2018-01-11T09:15:04.624Z,4.60
2018-01-11T09:17:32.211Z,4.60
2018-01-11T09:19:59.835Z,4.60
2018-01-11T09:22:27.419Z,4.70
2018-01-11T09:24:55.020Z,4.70
2018-01-11T09:27:23.385Z,4.80
2018-01-11T09:29:50.982Z,4.80
2018-01-11T09:32:19.335Z,4.90
2018-01-11T09:34:46.923Z,4.90
2018-01-11T09:37:15.286Z,4.90
2018-01-11T09:39:42.888Z,4.90
2018-01-11T09:42:10.523Z,4.90
2018-01-11T09:44:38.125Z,4.90
2018-01-11T09:47:05.714Z,4.90
2018-01-11T09:49:33.339Z,5.00
2018-01-11T09:52:01.697Z,5.00
2018-01-11T09:54:29.287Z,5.00
2018-01-11T09:56:57.835Z,5.00
2018-01-11T09:59:25.425Z,5.10
2018-01-11T10:01:53.039Z,5.20
2018-01-11T10:04:20.632Z,5.30
2018-01-11T10:06:48.227Z,5.30
2018-01-11T10:09:15.820Z,5.30
2018-01-11T10:11:43.408Z,5.40
2018-01-11T10:14:11.004Z,5.40
2018-01-11T10:16:38.599Z,5.40
2018-01-11T10:19:06.323Z,5.50
2018-01-11T10:21:33.935Z,5.40
2018-01-11T10:24:01.549Z,5.50
2018-01-11T10:26:29.181Z,5.50
2018-01-11T10:28:56.795Z,5.50
2018-01-11T10:31:24.390Z,5.50
2018-01-11T10:33:52.747Z,5.60
2018-01-11T10:36:20.349Z,5.50
2018-01-11T10:38:47.943Z,5.50
2018-01-11T10:41:15.547Z,5.60
2018-01-11T10:43:43.903Z,5.60
2018-01-11T10:46:11.508Z,5.50
2018-01-11T10:48:39.911Z,5.60
2018-01-11T10:51:07.513Z,5.60
2018-01-11T10:53:35.106Z,5.60
2018-01-11T10:56:02.704Z,5.60
2018-01-11T10:58:30.418Z,5.60
2018-01-11T11:01:03.569Z,5.70
2018-01-11T11:03:31.213Z,5.70
2018-01-11T11:05:59.772Z,5.80
2018-01-11T11:08:27.387Z,5.90
2018-01-11T11:10:55.824Z,5.90
2018-01-11T11:13:23.435Z,5.90
2018-01-11T11:15:51.088Z,5.90
2018-01-11T11:18:18.687Z,6.00
2018-01-11T11:20:50.960Z,6.00
2018-01-11T11:23:22.384Z,6.10
2018-01-11T11:25:49.996Z,6.10
2018-01-11T11:28:17.642Z,6.10
2018-01-11T11:30:46.276Z,6.00
2018-01-11T11:33:13.891Z,6.00
2018-01-11T11:35:41.502Z,6.00
2018-01-11T11:38:09.904Z,6.00
2018-01-11T11:40:37.560Z,6.00
2018-01-11T11:43:05.943Z,6.10
2018-01-11T11:45:34.325Z,6.10
2018-01-11T11:48:02.708Z,6.20
2018-01-11T11:50:31.306Z,6.20
2018-01-11T11:52:58.915Z,6.20
2018-01-11T11:55:26.587Z,6.30
2018-01-11T11:57:54.184Z,6.30
2018-01-11T12:00:22.622Z,6.30
2018-01-11T12:02:51.252Z,6.30
2018-01-11T12:05:18.842Z,6.40
2018-01-11T12:07:46.435Z,6.40
2018-01-11T12:10:14.032Z,6.40
2018-01-11T12:12:41.620Z,6.40
2018-01-11T12:15:09.208Z,6.40
2018-01-11T12:17:36.793Z,6.50
2018-01-11T12:20:04.423Z,6.50
2018-01-11T12:22:32.785Z,6.50
2018-01-11T12:25:00.387Z,6.50
2018-01-11T12:27:27.992Z,6.60
2018-01-11T12:29:55.588Z,6.60
2018-01-11T12:32:23.180Z,6.60
2018-01-11T12:34:50.773Z,6.60
2018-01-11T12:37:18.367Z,6.60
2018-01-11T12:39:45.960Z,6.50
2018-01-11T12:42:14.321Z,6.50
2018-01-11T12:44:41.912Z,6.50
2018-01-11T12:47:10.263Z,6.50
2018-01-11T12:49:37.856Z,6.50
2018-01-11T12:52:05.445Z,6.50
2018-01-11T12:54:33.051Z,6.50
2018-01-11T12:57:00.643Z,6.50
2018-01-11T12:59:29.007Z,6.50
2018-01-11T13:01:56.601Z,6.50
2018-01-11T13:04:25.975Z,6.60
2018-01-11T13:06:54.555Z,6.50
2018-01-11T13:09:22.150Z,6.60
2018-01-11T13:11:49.761Z,6.60
2018-01-11T13:14:17.354Z,6.60
2018-01-11T13:16:44.946Z,6.50
2018-01-11T13:19:12.539Z,6.50
2018-01-11T13:21:40.166Z,6.60
2018-01-11T13:24:07.822Z,6.60
2018-01-11T13:26:36.409Z,6.60
2018-01-11T13:29:04.008Z,6.50
2018-01-11T13:31:31.608Z,6.50
2018-01-11T13:33:59.199Z,6.50
2018-01-11T13:36:26.803Z,6.50
2018-01-11T13:38:54.422Z,6.50
2018-01-11T13:41:22.007Z,6.50
2018-01-11T13:43:50.375Z,6.40
2018-01-11T13:46:17.966Z,6.40
2018-01-11T13:48:46.324Z,6.30
2018-01-11T13:51:13.926Z,6.20
2018-01-11T13:53:42.425Z,6.10
2018-01-11T13:56:10.048Z,6.10
2018-01-11T13:58:37.647Z,6.00
2018-01-11T14:01:05.262Z,6.00
2018-01-11T14:03:32.942Z,5.90
2018-01-11T14:06:00.612Z,5.80
2018-01-11T14:08:28.231Z,5.80
2018-01-11T14:10:55.829Z,5.80
2018-01-11T14:13:23.423Z,5.70
2018-01-11T14:15:51.019Z,5.80
2018-01-11T14:18:18.639Z,5.70
2018-01-11T14:20:46.234Z,5.70
2018-01-11T14:23:15.015Z,5.70
2018-01-11T14:28:34.030Z,5.70
2018-01-11T14:31:01.580Z,5.70
2018-01-11T14:33:29.128Z,5.70
2018-01-11T14:35:57.459Z,5.60
2018-01-11T14:38:25.049Z,5.60
2018-01-11T14:40:52.606Z,5.60
2018-01-11T14:43:21.160Z,5.50
2018-01-11T14:45:48.730Z,5.50
2018-01-11T14:48:16.290Z,5.50
2018-01-11T14:50:43.842Z,5.40
2018-01-11T14:53:11.398Z,5.40
2018-01-11T14:55:38.948Z,5.40
2018-01-11T14:58:07.300Z,5.40
2018-01-11T15:00:34.884Z,5.40
2018-01-11T15:03:03.208Z,5.40
2018-01-11T15:05:30.775Z,5.30
2018-01-11T15:07:58.342Z,5.30
2018-01-11T15:10:27.028Z,5.30
2018-01-11T15:12:55.333Z,5.20
2018-01-11T15:15:23.829Z,5.20
2018-01-11T15:17:51.408Z,5.20
2018-01-11T15:20:20.217Z,5.20
2018-01-11T15:22:48.544Z,5.20
2018-01-11T15:25:16.128Z,5.20
2018-01-11T15:27:43.709Z,5.20
2018-01-11T15:30:11.348Z,5.10
2018-01-11T15:32:38.918Z,5.10
2018-01-11T15:35:06.477Z,5.10
2018-01-11T15:37:34.033Z,5.10
2018-01-11T15:40:05.729Z,5.10
2018-01-11T15:42:35.331Z,5.10
2018-01-11T15:45:02.909Z,5.00
2018-01-11T15:47:30.492Z,5.10
2018-01-11T15:49:58.049Z,5.00
2018-01-11T15:52:25.604Z,5.00
2018-01-11T15:54:53.151Z,5.00
2018-01-11T15:57:21.699Z,5.00
2018-01-11T15:59:49.254Z,5.00
2018-01-11T16:02:16.801Z,5.00
2018-01-11T16:04:44.351Z,4.90
2018-01-11T16:07:12.770Z,4.90
2018-01-11T16:09:40.317Z,4.90
2018-01-11T16:12:07.886Z,4.90
2018-01-11T16:14:35.436Z,4.90
2018-01-11T16:17:03.002Z,4.80
2018-01-11T16:19:30.562Z,4.80
2018-01-11T16:21:58.130Z,4.80
2018-01-11T16:24:25.731Z,4.80
2018-01-11T16:26:53.269Z,4.80
2018-01-11T16:29:20.836Z,4.80
2018-01-11T16:31:48.388Z,4.70
2018-01-11T16:34:15.933Z,4.70
2018-01-11T16:36:44.235Z,4.70
2018-01-11T16:39:11.832Z,4.70
2018-01-11T16:41:39.383Z,4.70
2018-01-11T16:44:06.923Z,4.70
2018-01-11T16:46:34.473Z,4.70
2018-01-11T16:49:02.780Z,4.70
2018-01-11T16:51:30.332Z,4.70
2018-01-11T16:53:57.922Z,4.70
2018-01-11T16:56:25.469Z,4.70
2018-01-11T16:58:53.008Z,4.70
2018-01-11T17:01:20.588Z,4.70
2018-01-11T17:03:48.132Z,4.70
2018-01-11T17:06:16.450Z,4.70
2018-01-11T17:08:43.993Z,4.70
2018-01-11T17:11:12.299Z,4.60
2018-01-11T17:13:39.848Z,4.60
2018-01-11T17:16:07.396Z,4.60
2018-01-11T17:18:35.705Z,4.70
2018-01-11T17:21:03.252Z,4.60
2018-01-11T17:23:30.822Z,4.60
2018-01-11T17:25:58.365Z,4.60
2018-01-11T17:28:26.668Z,4.60
2018-01-11T17:30:54.232Z,4.50
2018-01-11T17:33:21.776Z,4.60
2018-01-11T17:35:49.320Z,4.50
2018-01-11T17:38:16.891Z,4.50
2018-01-11T17:40:44.433Z,4.50
2018-01-11T17:43:11.983Z,4.60
2018-01-11T17:45:39.528Z,4.60
2018-01-11T17:48:07.075Z,4.50
2018-01-11T17:50:34.653Z,4.60
2018-01-11T17:53:02.206Z,4.60
2018-01-11T17:55:29.787Z,4.60
2018-01-11T17:57:57.328Z,4.60
2018-01-11T18:00:24.881Z,4.60
2018-01-11T18:02:53.191Z,4.50
2018-01-11T18:05:20.782Z,4.50
2018-01-11T18:07:48.490Z,4.50
2018-01-11T18:10:16.036Z,4.50
2018-01-11T18:12:43.581Z,4.50
2018-01-11T18:15:11.133Z,4.50
2018-01-11T18:17:38.677Z,4.50
2018-01-11T18:20:06.235Z,4.40
2018-01-11T18:22:33.787Z,4.50
2018-01-11T18:25:01.340Z,4.50
2018-01-11T18:27:30.652Z,4.50
2018-01-11T18:29:58.961Z,4.50
2018-01-11T18:32:26.539Z,4.50
2018-01-11T18:34:55.097Z,4.50
2018-01-11T18:37:22.638Z,4.40
2018-01-11T18:39:50.948Z,4.40
2018-01-11T18:42:18.556Z,4.40
2018-01-11T18:44:46.109Z,4.40
2018-01-11T18:47:13.653Z,4.40
2018-01-11T18:49:41.196Z,4.40
2018-01-11T18:52:08.756Z,4.40
2018-01-11T18:54:36.322Z,4.40
2018-01-11T18:57:04.808Z,4.40
2018-01-11T18:59:32.375Z,4.50
2018-01-11T19:02:00.857Z,4.40
2018-01-11T19:04:28.476Z,4.40
2018-01-11T19:06:57.949Z,4.40
2018-01-11T19:09:26.429Z,4.40
2018-01-11T19:11:53.981Z,4.40
2018-01-11T19:14:21.530Z,4.40
2018-01-11T19:16:49.093Z,4.40
2018-01-11T19:19:17.705Z,4.50
2018-01-11T19:21:45.304Z,4.50
2018-01-11T19:24:12.876Z,4.50
2018-01-11T19:26:40.439Z,4.50
2018-01-11T19:29:07.996Z,4.50
2018-01-11T19:31:35.552Z,4.50
2018-01-11T19:34:03.094Z,4.50
2018-01-11T19:36:30.640Z,4.50
2018-01-11T19:38:58.189Z,4.50
2018-01-11T19:41:26.497Z,4.50
2018-01-11T19:43:54.051Z,4.50
2018-01-11T19:46:21.609Z,4.50
2018-01-11T19:48:49.920Z,4.50
2018-01-11T19:51:17.472Z,4.50
2018-01-11T19:53:45.024Z,4.50
2018-01-11T19:56:12.573Z,4.50
2018-01-11T19:58:40.889Z,4.50
2018-01-11T20:01:08.449Z,4.40
2018-01-11T20:03:36.008Z,4.50
2018-01-11T20:06:04.593Z,4.50
2018-01-11T20:08:32.137Z,4.40
2018-01-11T20:11:00.449Z,4.40
2018-01-11T20:13:27.995Z,4.40
2018-01-11T20:15:55.608Z,4.40
2018-01-11T20:18:23.176Z,4.50
2018-01-11T20:20:50.732Z,4.50
2018-01-11T20:23:18.306Z,4.50
2018-01-11T20:25:45.885Z,4.50
2018-01-11T20:28:13.462Z,4.50
2018-01-11T20:30:41.828Z,4.50
2018-01-11T20:33:09.397Z,4.40
2018-01-11T20:35:37.734Z,4.50
2018-01-11T20:38:05.331Z,4.40
2018-01-11T20:40:32.884Z,4.50
2018-01-11T20:43:00.441Z,4.50
2018-01-11T20:45:28.029Z,4.50
2018-01-11T20:47:56.556Z,4.50
2018-01-11T20:50:24.134Z,4.50
2018-01-11T20:52:51.682Z,4.50
2018-01-11T20:55:19.224Z,4.50
2018-01-11T20:57:47.531Z,4.50
2018-01-11T21:00:15.069Z,4.40
2018-01-11T21:02:43.385Z,4.40
2018-01-11T21:05:11.864Z,4.40
2018-01-11T21:07:39.566Z,4.40
2018-01-11T21:10:07.104Z,4.40
2018-01-11T21:12:34.649Z,4.30
2018-01-11T21:15:02.195Z,4.30
2018-01-11T21:17:30.510Z,4.30
2018-01-11T21:19:58.069Z,4.30
2018-01-11T21:22:25.615Z,4.30
2018-01-11T21:24:53.931Z,4.30
2018-01-11T21:27:21.468Z,4.30
2018-01-11T21:29:49.012Z,4.30
2018-01-11T21:32:17.316Z,4.30
2018-01-11T21:34:44.875Z,4.30
2018-01-11T21:37:12.433Z,4.30
2018-01-11T21:39:40.744Z,4.30
2018-01-11T21:42:08.283Z,4.30
2018-01-11T21:44:35.828Z,4.30
2018-01-11T21:47:04.133Z,4.30
2018-01-11T21:49:31.680Z,4.30
2018-01-11T21:51:59.992Z,4.30
2018-01-11T21:54:27.545Z,4.30
2018-01-11T21:56:55.092Z,4.30
2018-01-11T21:59:22.982Z,4.30
2018-01-11T22:01:50.524Z,4.30
2018-01-11T22:04:18.072Z,4.30
2018-01-11T22:06:45.620Z,4.30
2018-01-11T22:09:13.164Z,4.30
2018-01-11T22:11:40.708Z,4.30
2018-01-11T22:14:08.260Z,4.30
2018-01-11T22:16:35.797Z,4.30
2018-01-11T22:19:03.575Z,4.30
2018-01-11T22:21:31.879Z,4.30
2018-01-11T22:23:59.424Z,4.30
2018-01-11T22:26:27.732Z,4.30
2018-01-11T22:28:55.284Z,4.20
2018-01-11T22:31:22.849Z,4.30
2018-01-11T22:33:50.393Z,4.20
2018-01-11T22:36:18.709Z,4.30
2018-01-11T22:38:46.249Z,4.30
2018-01-11T22:41:13.820Z,4.30
2018-01-11T22:43:41.373Z,4.20
2018-01-11T22:46:08.917Z,4.20
2018-01-11T22:48:36.460Z,4.20
2018-01-11T22:51:04.005Z,4.20
2018-01-11T22:53:31.554Z,4.30
2018-01-11T22:55:59.140Z,4.30
2018-01-11T22:58:26.682Z,4.30
2018-01-11T23:00:54.220Z,4.30
2018-01-11T23:03:22.553Z,4.30
2018-01-11T23:05:50.103Z,4.30
2018-01-11T23:08:17.656Z,4.40
2018-01-11T23:10:45.231Z,4.40
2018-01-11T23:13:12.780Z,4.40
2018-01-11T23:15:40.329Z,4.40
2018-01-11T23:18:07.867Z,4.40
2018-01-11T23:20:36.184Z,4.30
2018-01-11T23:23:03.727Z,4.30
2018-01-11T23:25:32.048Z,4.30
2018-01-11T23:27:59.588Z,4.30
2018-01-11T23:30:27.144Z,4.30
2018-01-11T23:32:54.681Z,4.30
2018-01-11T23:35:22.234Z,4.20
2018-01-11T23:37:49.780Z,4.20
2018-01-11T23:40:17.337Z,4.20
2018-01-11T23:42:44.891Z,4.20
2018-01-11T23:45:12.442Z,4.20
2018-01-11T23:47:39.992Z,4.20
2018-01-11T23:50:07.541Z,4.10
2018-01-11T23:52:35.853Z,4.10
2018-01-11T23:55:03.445Z,4.20
2018-01-11T23:57:30.996Z,4.10
2018-01-11T23:59:59.447Z,4.20
